Time;durP1;ratioP1;P1;durP2;ratioP2;P2;SDS_P1;SDS_P2;PMS_P1;PMS_P2;Temp;Humidity;BMP_temperature;BMP_pressure;BME280_temperature;BME280_humidity;BME280_pressure;Samples;Min_cycle;Max_cycle;Signal;HPM_P1;HPM_P2
2022/08/24 00:01:16;;;;;;;3.87;1.60;;;22.00;99.90;;;;;;4846986;29;20309;-58
2022/08/24 00:03:46;;;;;;;3.90;1.70;;;21.90;99.90;;;;;;4846328;29;20567;-57
2022/08/24 00:06:22;;;;;;;2.67;1.83;;;21.90;99.90;;;;;;4847995;29;20238;-57
2022/08/24 00:08:52;;;;;;;3.00;1.40;;;21.90;99.90;;;;;;4845928;29;20264;-55
2022/08/24 00:11:22;;;;;;;2.37;1.50;;;21.90;99.90;;;;;;4847035;29;20245;-55
2022/08/24 00:13:50;;;;;;;4.00;1.50;;;21.90;99.90;;;;;;4846694;29;20243;-55
2022/08/24 00:16:18;;;;;;;3.27;1.43;;;21.90;99.90;;;;;;4846036;29;21068;-57
2022/08/24 00:18:47;;;;;;;3.60;1.77;;;22.00;99.90;;;;;;4849121;29;20254;-57
2022/08/24 00:21:17;;;;;;;7.23;1.93;;;21.90;99.90;;;;;;4858405;29;20330;-57
2022/08/24 00:23:48;;;;;;;4.77;1.83;;;21.90;99.90;;;;;;4853867;29;20244;-57
2022/08/24 00:26:16;;;;;;;1.80;1.30;;;21.90;99.90;;;;;;4857482;29;20282;-54
2022/08/24 00:28:57;;;;;;;3.53;1.43;;;21.90;99.90;;;;;;4835112;29;20721;-56
2022/08/24 00:31:25;;;;;;;2.50;1.57;;;21.90;99.90;;;;;;4852304;29;20250;-55
2022/08/24 00:33:55;;;;;;;4.77;1.83;;;21.90;99.90;;;;;;4856664;29;21049;-57
2022/08/24 00:36:23;;;;;;;4.03;1.83;;;21.90;99.90;;;;;;4836870;29;20341;-56
2022/08/24 00:38:53;;;;;;;3.13;1.50;;;21.80;99.90;;;;;;4832675;29;20332;-55
2022/08/24 00:41:21;;;;;;;2.63;1.70;;;21.80;99.90;;;;;;4859778;29;21274;-57
2022/08/24 00:43:54;;;;;;;4.10;1.80;;;21.80;99.90;;;;;;4844726;29;20298;-57
2022/08/24 00:46:28;;;;;;;3.37;1.57;;;21.80;99.90;;;;;;4849083;29;20271;-55
2022/08/24 00:49:01;;;;;;;3.40;1.50;;;21.80;99.90;;;;;;4849278;29;20330;-57
2022/08/24 00:51:33;;;;;;;4.93;2.00;;;21.80;99.90;;;;;;4846399;29;20239;-57
2022/08/24 00:54:06;;;;;;;4.57;1.40;;;21.80;99.90;;;;;;4852240;29;20262;-56
2022/08/24 00:56:37;;;;;;;2.77;1.70;;;21.80;99.90;;;;;;4858570;29;20245;-57
2022/08/24 00:59:11;;;;;;;2.77;1.50;;;21.70;99.90;;;;;;4835789;29;20612;-57
2022/08/24 01:01:41;;;;;;;4.70;1.90;;;21.80;99.90;;;;;;4860914;29;20237;-57
2022/08/24 01:04:14;;;;;;;3.63;1.53;;;21.80;99.90;;;;;;4838952;29;20334;-57
2022/08/24 01:06:42;;;;;;;2.80;1.87;;;21.70;99.90;;;;;;4852620;29;20836;-57
2022/08/24 01:09:10;;;;;;;5.97;1.60;;;21.70;99.90;;;;;;4837438;29;20726;-56
2022/08/24 01:11:39;;;;;;;5.30;1.63;;;21.70;99.90;;;;;;4856890;29;20237;-57
2022/08/24 01:14:07;;;;;;;4.50;1.70;;;21.70;99.90;;;;;;4840290;29;20336;-57
2022/08/24 01:19:31;;;;;;;5.83;1.70;;;21.70;99.90;;;;;;4833669;29;20293;-56
2022/08/24 01:22:15;;;;;;;3.23;1.80;;;21.70;99.90;;;;;;4855529;29;20663;-57
2022/08/24 01:24:45;;;;;;;2.37;1.60;;;21.60;99.90;;;;;;4838577;29;20749;-57
2022/08/24 01:27:15;;;;;;;3.53;1.50;;;21.60;99.90;;;;;;4839203;29;20755;-55
2022/08/24 01:29:47;;;;;;;3.90;1.50;;;21.60;99.90;;;;;;4839120;29;20231;-57
2022/08/24 01:32:23;;;;;;;3.73;1.57;;;21.50;99.90;;;;;;4843613;29;20296;-54
2022/08/24 01:34:51;;;;;;;1.90;1.60;;;21.50;99.90;;;;;;4858213;29;20787;-57
2022/08/24 01:37:20;;;;;;;3.67;1.63;;;21.50;99.90;;;;;;4837701;29;20233;-56
2022/08/24 01:39:52;;;;;;;3.00;1.70;;;21.50;99.90;;;;;;4846011;29;20786;-56
2022/08/24 01:42:21;;;;;;;3.97;1.80;;;21.40;99.90;;;;;;4859189;29;20338;-57
2022/08/24 01:44:49;;;;;;;7.30;1.77;;;21.40;99.90;;;;;;4841348;29;20230;-56
2022/08/24 01:47:18;;;;;;;4.37;1.73;;;21.40;99.90;;;;;;4834411;29;20713;-56
2022/08/24 01:49:48;;;;;;;2.37;1.73;;;21.40;99.90;;;;;;4834752;29;20338;-56
2022/08/24 01:52:23;;;;;;;3.50;1.50;;;21.40;99.90;;;;;;4839281;29;20674;-55
2022/08/24 01:54:54;;;;;;;3.67;1.50;;;21.40;99.90;;;;;;4840906;29;20864;-58
2022/08/24 01:57:24;;;;;;;3.27;1.70;;;21.40;99.90;;;;;;4851038;29;20818;-56
2022/08/24 01:59:56;;;;;;;3.27;1.63;;;21.30;99.90;;;;;;4839639;29;20240;-57
2022/08/24 02:02:28;;;;;;;2.73;1.50;;;21.30;99.90;;;;;;4841141;29;20270;-55
2022/08/24 02:04:57;;;;;;;3.50;1.90;;;21.30;99.90;;;;;;4861648;29;20237;-57
2022/08/24 02:07:25;;;;;;;3.43;1.60;;;21.20;99.90;;;;;;4841291;29;20232;-57
2022/08/24 02:09:55;;;;;;;2.97;1.80;;;21.10;99.90;;;;;;4840233;29;20246;-56
2022/08/24 02:12:24;;;;;;;4.10;1.70;;;21.10;99.90;;;;;;4843448;29;20235;-56
2022/08/24 02:14:53;;;;;;;2.07;1.60;;;21.10;99.90;;;;;;4840265;29;20241;-57
2022/08/24 02:17:21;;;;;;;3.87;1.93;;;21.00;99.90;;;;;;4846225;29;20757;-56
2022/08/24 02:19:50;;;;;;;2.77;1.67;;;21.10;99.90;;;;;;4850728;29;20320;-54
2022/08/24 02:22:19;;;;;;;2.80;1.90;;;21.00;99.90;;;;;;4843346;29;20249;-55
2022/08/24 02:24:47;;;;;;;4.83;2.00;;;21.00;99.90;;;;;;4841598;29;20294;-56
2022/08/24 02:27:17;;;;;;;2.77;1.60;;;21.00;99.90;;;;;;4861478;29;20225;-56
2022/08/24 02:29:45;;;;;;;3.47;1.77;;;20.90;99.90;;;;;;4840468;29;20276;-57
2022/08/24 02:32:14;;;;;;;3.63;1.87;;;20.90;99.90;;;;;;4844206;29;20337;-56
2022/08/24 02:34:42;;;;;;;4.47;2.00;;;20.90;99.90;;;;;;4840011;29;21083;-55
2022/08/24 02:37:11;;;;;;;2.53;1.70;;;20.90;99.90;;;;;;4839010;29;20783;-56
2022/08/24 02:39:39;;;;;;;4.47;1.80;;;20.90;99.90;;;;;;4835872;29;20734;-57
2022/08/24 02:42:14;;;;;;;4.23;1.80;;;20.90;99.90;;;;;;4837210;29;20239;-56
2022/08/24 02:44:43;;;;;;;4.90;1.93;;;20.80;99.90;;;;;;4861495;29;20241;-55
2022/08/24 02:47:12;;;;;;;3.53;1.80;;;20.80;99.90;;;;;;4841177;29;20833;-57
2022/08/24 02:49:40;;;;;;;3.20;1.60;;;20.80;99.90;;;;;;4836212;29;20678;-57
2022/08/24 02:52:09;;;;;;;2.47;1.70;;;20.80;99.90;;;;;;4839482;29;20229;-57
2022/08/24 02:54:38;;;;;;;3.87;1.70;;;20.80;99.90;;;;;;4838935;29;20242;-57
2022/08/24 02:57:07;;;;;;;2.67;1.90;;;20.80;99.90;;;;;;4840004;29;20227;-58
2022/08/24 02:59:35;;;;;;;3.60;1.90;;;20.70;99.90;;;;;;4840448;29;20372;-55
2022/08/24 03:02:05;;;;;;;2.70;1.70;;;20.70;99.90;;;;;;4859796;29;20780;-56
2022/08/24 03:04:33;;;;;;;2.23;1.70;;;20.70;99.90;;;;;;4843721;29;20238;-57
2022/08/24 03:07:04;;;;;;;3.93;1.73;;;20.60;99.90;;;;;;4841066;29;20723;-55
2022/08/24 03:09:32;;;;;;;2.73;1.97;;;20.50;99.90;;;;;;4849293;29;21170;-55
2022/08/24 03:12:00;;;;;;;2.90;1.70;;;20.60;99.90;;;;;;4829809;29;20341;-57
2022/08/24 03:14:28;;;;;;;2.47;1.70;;;20.50;99.90;;;;;;4837930;29;20244;-56
2022/08/24 03:16:56;;;;;;;4.00;1.90;;;20.50;99.90;;;;;;4841354;29;20242;-55
2022/08/24 03:19:26;;;;;;;3.27;1.77;;;20.50;99.90;;;;;;4850837;29;20342;-55
2022/08/24 03:21:54;;;;;;;2.83;1.80;;;20.50;99.90;;;;;;4848846;29;20265;-57
2022/08/24 03:24:22;;;;;;;3.27;1.83;;;20.50;99.90;;;;;;4848990;29;20624;-56
2022/08/24 03:26:51;;;;;;;4.53;1.83;;;20.40;99.90;;;;;;4849377;29;20284;-57
2022/08/24 03:29:19;;;;;;;3.43;1.80;;;20.40;99.90;;;;;;4848435;29;20783;-57
2022/08/24 03:31:51;;;;;;;5.30;1.83;;;20.40;99.90;;;;;;4850085;29;20244;-57
2022/08/24 03:34:19;;;;;;;4.93;2.10;;;20.40;99.90;;;;;;4863111;29;20245;-56
2022/08/24 03:36:49;;;;;;;5.20;2.00;;;20.30;99.90;;;;;;4858926;29;20308;-57
2022/08/24 03:39:17;;;;;;;6.10;2.10;;;20.30;99.90;;;;;;4840573;29;20237;-57
2022/08/24 03:41:49;;;;;;;5.07;1.90;;;20.30;99.90;;;;;;4849478;29;20234;-57
2022/08/24 03:44:17;;;;;;;3.60;2.00;;;20.30;99.90;;;;;;4850308;29;20690;-56
2022/08/24 03:46:50;;;;;;;3.97;2.10;;;20.30;99.90;;;;;;4864377;29;20331;-57
2022/08/24 03:49:19;;;;;;;2.33;1.50;;;20.30;99.90;;;;;;4846855;29;20226;-57
2022/08/24 03:51:49;;;;;;;3.13;1.73;;;20.20;99.90;;;;;;4848774;29;20238;-56
2022/08/24 03:54:20;;;;;;;3.50;1.53;;;20.20;99.90;;;;;;4847476;29;20237;-57
2022/08/24 03:56:48;;;;;;;3.47;1.90;;;20.20;99.90;;;;;;4848306;29;20233;-57
2022/08/24 03:59:16;;;;;;;2.57;1.77;;;20.20;99.90;;;;;;4859995;29;20248;-56
2022/08/24 04:01:49;;;;;;;4.17;1.60;;;20.10;99.90;;;;;;4839988;29;20234;-57
2022/08/24 04:04:18;;;;;;;3.93;1.90;;;20.10;99.90;;;;;;4846395;29;20788;-57
2022/08/24 04:06:46;;;;;;;3.33;1.93;;;20.10;99.90;;;;;;4847323;29;20248;-55
2022/08/24 04:09:17;;;;;;;5.93;2.10;;;20.00;99.90;;;;;;4864662;29;20245;-56
2022/08/24 04:11:47;;;;;;;3.47;1.70;;;20.00;99.90;;;;;;4848692;29;20237;-55
2022/08/24 04:14:20;;;;;;;2.47;1.67;;;20.00;99.90;;;;;;4842286;29;20238;-57
2022/08/24 04:17:00;;;;;;;4.17;2.10;;;19.90;99.90;;;;;;4848392;29;20243;-57
2022/08/24 04:19:34;;;;;;;3.43;2.10;;;19.80;99.90;;;;;;4832021;29;20726;-56
2022/08/24 04:22:02;;;;;;;3.70;1.90;;;19.80;99.90;;;;;;4832169;29;20238;-57
2022/08/24 04:24:32;;;;;;;2.87;2.00;;;19.70;99.90;;;;;;4834130;29;20235;-56
2022/08/24 04:27:00;;;;;;;3.07;1.83;;;19.70;99.90;;;;;;4832944;29;20272;-56
2022/08/24 04:29:28;;;;;;;3.70;2.30;;;19.70;99.90;;;;;;4833289;29;20310;-56
2022/08/24 04:31:57;;;;;;;2.77;2.00;;;19.60;99.90;;;;;;4831159;29;20364;-55
2022/08/24 04:34:26;;;;;;;4.40;2.20;;;19.70;99.90;;;;;;4832888;29;20369;-54
2022/08/24 04:36:54;;;;;;;3.10;1.73;;;19.70;99.90;;;;;;4850036;29;20325;-56
2022/08/24 04:39:23;;;;;;;3.47;2.17;;;19.70;99.90;;;;;;4840900;29;20245;-57
2022/08/24 04:42:31;;;;;;;2.93;2.10;;;19.60;99.90;;;;;;4846890;29;20234;-56
2022/08/24 04:45:01;;;;;;;2.87;2.00;;;19.60;99.90;;;;;;4840673;29;20603;-56
2022/08/24 04:47:29;;;;;;;5.50;2.33;;;19.60;99.90;;;;;;4839164;29;20666;-56
2022/08/24 04:49:59;;;;;;;2.73;2.20;;;19.60;99.90;;;;;;4837641;29;20272;-56
2022/08/24 04:52:28;;;;;;;2.57;2.20;;;19.60;99.90;;;;;;4840543;29;20241;-56
2022/08/24 04:54:57;;;;;;;3.90;2.57;;;19.60;99.90;;;;;;4840364;29;20331;-57
2022/08/24 04:57:26;;;;;;;4.10;2.20;;;19.60;99.90;;;;;;4832212;29;20277;-55
2022/08/24 04:59:57;;;;;;;5.10;2.40;;;19.60;99.90;;;;;;4831773;29;20246;-54
2022/08/24 05:02:26;;;;;;;4.53;2.40;;;19.70;99.90;;;;;;4836245;29;20763;-57
2022/08/24 05:04:57;;;;;;;4.13;2.33;;;19.70;99.90;;;;;;4835978;29;20241;-55
2022/08/24 05:07:25;;;;;;;4.40;2.10;;;19.70;99.90;;;;;;4837533;29;20345;-55
2022/08/24 05:09:55;;;;;;;4.10;2.17;;;19.70;99.90;;;;;;4835954;29;20710;-57
2022/08/24 05:12:26;;;;;;;7.37;2.47;;;19.80;99.90;;;;;;4840324;29;20233;-57
2022/08/24 05:15:02;;;;;;;4.37;2.17;;;19.80;99.90;;;;;;4844892;29;20236;-58
2022/08/24 05:17:36;;;;;;;5.40;2.20;;;19.80;99.90;;;;;;4843423;29;20241;-57
2022/08/24 05:20:05;;;;;;;4.67;2.03;;;19.90;99.90;;;;;;4855797;29;20328;-56
2022/08/24 05:22:33;;;;;;;5.67;2.30;;;19.90;99.90;;;;;;4854321;29;20240;-57
2022/08/24 05:25:02;;;;;;;5.03;2.60;;;20.00;99.90;;;;;;4855007;29;20260;-56
2022/08/24 05:27:32;;;;;;;6.53;2.50;;;20.00;99.90;;;;;;4869382;29;20236;-56
2022/08/24 05:30:02;;;;;;;4.53;2.57;;;20.00;99.90;;;;;;4867202;29;20315;-56
2022/08/24 05:32:30;;;;;;;4.67;2.30;;;20.10;99.90;;;;;;4852446;29;20248;-56
2022/08/24 05:34:59;;;;;;;4.63;2.53;;;20.10;99.90;;;;;;4854064;29;20706;-55
2022/08/24 05:37:28;;;;;;;3.57;2.57;;;20.20;99.90;;;;;;4853240;29;20248;-55
2022/08/24 05:40:15;;;;;;;6.10;2.07;;;20.30;99.90;;;;;;4854951;29;20298;-55
2022/08/24 05:42:47;;;;;;;4.57;2.23;;;20.40;99.90;;;;;;4853923;29;20240;-54
2022/08/24 05:45:17;;;;;;;6.57;2.23;;;20.50;99.90;;;;;;4871089;29;20248;-55
2022/08/24 05:47:45;;;;;;;5.93;2.23;;;20.60;99.90;;;;;;4852858;29;20241;-56
2022/08/24 05:50:51;;;;;;;2.93;1.97;;;20.70;99.90;;;;;;4870441;29;20229;-56
2022/08/24 05:53:20;;;;;;;3.73;2.23;;;20.70;99.90;;;;;;4871025;29;20233;-54
2022/08/24 05:55:48;;;;;;;4.80;2.50;;;20.80;99.90;;;;;;4869501;29;20233;-56
2022/08/24 05:58:17;;;;;;;3.83;2.00;;;20.90;99.90;;;;;;4859590;29;20664;-54
2022/08/24 06:01:07;;;;;;;4.03;2.40;;;20.90;99.90;;;;;;4853516;29;20249;-55
2022/08/24 06:03:35;;;;;;;6.67;2.57;;;21.00;99.90;;;;;;4853953;29;20251;-57
2022/08/24 06:06:07;;;;;;;6.73;2.53;;;21.10;99.90;;;;;;4870116;29;20233;-56
2022/08/24 06:08:35;;;;;;;4.13;2.20;;;21.20;99.90;;;;;;4870066;29;20240;-54
2022/08/24 06:11:09;;;;;;;5.77;2.17;;;21.30;99.90;;;;;;4854232;29;20229;-56
2022/08/24 06:13:38;;;;;;;4.50;2.27;;;21.50;99.90;;;;;;4869183;29;20372;-54
2022/08/24 06:16:10;;;;;;;4.20;2.60;;;21.60;99.90;;;;;;4867107;29;20718;-56
2022/08/24 06:18:54;;;;;;;6.33;2.50;;;21.80;99.90;;;;;;4841081;29;20242;-56
2022/08/24 06:21:26;;;;;;;4.07;2.20;;;21.80;99.90;;;;;;4835340;29;20610;-56
2022/08/24 06:23:57;;;;;;;4.97;2.47;;;22.00;99.90;;;;;;4833973;29;20235;-55
2022/08/24 06:29:17;;;;;;;4.10;2.27;;;22.10;99.90;;;;;;4835462;29;20611;-56
2022/08/24 06:31:49;;;;;;;4.90;2.37;;;22.20;99.90;;;;;;4833997;29;20252;-55
2022/08/24 06:34:24;;;;;;;6.33;2.37;;;22.40;99.90;;;;;;4835143;29;20233;-56
2022/08/24 06:36:53;;;;;;;4.97;2.17;;;22.50;99.90;;;;;;4834265;29;20241;-56
2022/08/24 06:39:23;;;;;;;7.67;2.43;;;22.70;99.90;;;;;;4831842;29;20234;-56
2022/08/24 06:41:53;;;;;;;4.40;2.40;;;22.70;99.90;;;;;;4829509;29;20238;-56
2022/08/24 06:44:30;;;;;;;5.00;2.50;;;22.80;99.90;;;;;;4833243;29;20326;-56
2022/08/24 06:47:13;;;;;;;5.13;2.60;;;23.00;99.90;;;;;;4834407;29;20242;-56
2022/08/24 06:49:42;;;;;;;5.03;2.10;;;23.20;99.90;;;;;;4837706;29;20325;-57
2022/08/24 06:52:11;;;;;;;5.00;2.13;;;23.20;99.90;;;;;;4851310;29;20330;-57
2022/08/24 06:54:39;;;;;;;5.97;2.47;;;23.40;99.90;;;;;;4826459;29;20291;-55
2022/08/24 06:57:07;;;;;;;4.77;2.30;;;23.50;99.90;;;;;;4821798;29;20239;-57
2022/08/24 06:59:35;;;;;;;4.03;2.30;;;23.50;99.90;;;;;;4811695;29;20253;-57
2022/08/24 07:02:04;;;;;;;5.60;2.27;;;23.60;99.90;;;;;;4840652;29;20234;-57
2022/08/24 07:04:37;;;;;;;6.30;2.23;;;23.90;99.90;;;;;;4823495;29;20354;-56
2022/08/24 07:07:23;;;;;;;5.20;2.37;;;24.00;99.90;;;;;;4843030;29;20773;-55
2022/08/24 07:09:52;;;;;;;6.20;2.27;;;24.10;99.90;;;;;;4818564;29;20239;-57
2022/08/24 07:12:20;;;;;;;5.30;2.33;;;24.30;99.90;;;;;;4832041;29;20239;-56
2022/08/24 07:14:50;;;;;;;5.80;2.10;;;24.30;99.90;;;;;;4830397;29;20240;-57
2022/08/24 07:17:20;;;;;;;5.37;2.30;;;24.40;99.90;;;;;;4832273;29;20397;-55
2022/08/24 07:19:49;;;;;;;7.17;2.30;;;24.40;99.90;;;;;;4829647;29;20638;-55
2022/08/24 07:22:37;;;;;;;4.23;2.17;;;24.60;99.90;;;;;;4832257;29;20251;-57
2022/08/24 07:25:07;;;;;;;3.83;2.07;;;24.60;99.90;;;;;;4817527;29;20913;-56
2022/08/24 07:27:35;;;;;;;4.10;2.50;;;24.80;99.90;;;;;;4818089;29;20691;-57
2022/08/24 07:30:04;;;;;;;4.67;2.53;;;24.90;99.90;;;;;;4830337;29;20304;-57
2022/08/24 07:32:52;;;;;;;6.57;2.10;;;25.10;99.90;;;;;;4827784;29;20360;-57
2022/08/24 07:35:22;;;;;;;5.20;2.50;;;25.00;99.90;;;;;;4817404;29;21109;-57
2022/08/24 07:37:50;;;;;;;5.37;2.30;;;25.20;99.90;;;;;;4819417;29;20264;-57
2022/08/24 07:40:21;;;;;;;4.10;2.50;;;25.40;99.90;;;;;;4822847;29;20248;-56
2022/08/24 07:42:50;;;;;;;6.17;2.53;;;25.30;99.90;;;;;;4821297;29;20233;-58
2022/08/24 07:45:18;;;;;;;4.73;2.30;;;25.60;99.90;;;;;;4823096;29;20255;-57
2022/08/24 07:47:50;;;;;;;4.60;2.50;;;25.60;99.90;;;;;;4822704;29;20248;-58
2022/08/24 07:50:38;;;;;;;5.07;1.90;;;25.90;99.90;;;;;;4832902;29;20741;-57
2022/08/24 07:53:06;;;;;;;4.07;2.23;;;26.10;99.90;;;;;;4824927;29;20320;-56
2022/08/24 07:55:42;;;;;;;5.67;2.37;;;26.10;99.90;;;;;;4819515;29;20279;-56
2022/08/24 07:58:13;;;;;;;4.07;2.10;;;26.10;99.90;;;;;;4827314;29;20248;-58
2022/08/24 08:00:46;;;;;;;4.30;2.50;;;26.20;99.90;;;;;;4830934;29;20249;-58
2022/08/24 08:03:14;;;;;;;5.07;2.20;;;26.40;99.90;;;;;;4831524;29;20248;-57
2022/08/24 08:05:45;;;;;;;5.23;1.97;;;26.50;99.90;;;;;;4826235;29;20248;-57
2022/08/24 08:08:14;;;;;;;4.97;2.30;;;26.50;99.90;;;;;;4823991;29;20238;-56
2022/08/24 08:10:42;;;;;;;3.90;2.10;;;26.80;99.90;;;;;;4829025;29;20241;-56
2022/08/24 08:13:10;;;;;;;7.90;2.60;;;26.90;99.90;;;;;;4829291;29;20275;-58
2022/08/24 08:15:38;;;;;;;2.90;1.93;;;27.00;99.90;;;;;;4834479;29;20795;-57
2022/08/24 08:18:10;;;;;;;6.63;2.50;;;27.20;99.90;;;;;;4831845;29;20248;-58
2022/08/24 08:20:41;;;;;;;7.30;2.50;;;27.20;99.90;;;;;;4830963;29;20995;-59
2022/08/24 08:26:15;;;;;;;5.13;2.00;;;27.80;99.90;;;;;;4825768;29;20296;-57
2022/08/24 08:28:57;;;;;;;9.37;2.30;;;27.80;99.90;;;;;;4825390;29;20250;-57
2022/08/24 08:31:25;;;;;;;3.70;2.27;;;28.10;99.90;;;;;;4835727;29;20246;-58
2022/08/24 08:33:54;;;;;;;4.60;2.40;;;28.00;99.90;;;;;;4830090;29;20571;-58
2022/08/24 08:36:23;;;;;;;4.00;2.00;;;28.30;99.90;;;;;;4831396;29;20237;-57
2022/08/24 08:38:53;;;;;;;6.03;2.53;;;28.20;99.90;;;;;;4848954;29;20611;-58
2022/08/24 08:42:03;;;;;;;4.90;2.20;;;28.40;99.90;;;;;;4849389;29;20269;-57
2022/08/24 08:44:57;;;;;;;3.73;2.20;;;28.40;99.90;;;;;;4760811;29;20610;-58
2022/08/24 08:47:42;;;;;;;4.73;2.20;;;28.60;99.90;;;;;;4796515;29;20237;-57
2022/08/24 08:50:21;;;;;;;3.37;2.10;;;28.70;99.90;;;;;;4871948;29;20243;-57
2022/08/24 08:53:12;;;;;;;4.43;2.20;;;28.80;99.90;;;;;;4822275;29;20289;-57
2022/08/24 08:55:48;;;;;;;4.40;2.30;;;29.10;99.90;;;;;;4830511;29;20347;-56
2022/08/24 08:58:41;;;;;;;3.13;2.17;;;29.50;99.90;;;;;;4836927;29;20233;-57
2022/08/24 09:01:34;;;;;;;6.03;2.50;;;29.80;99.90;;;;;;4829817;29;20234;-57
2022/08/24 09:04:50;;;;;;;2.53;1.80;;;29.80;99.90;;;;;;4833610;29;20352;-55
2022/08/24 09:07:31;;;;;;;4.77;2.00;;;30.00;99.90;;;;;;4867364;29;20687;-58
2022/08/24 09:10:40;;;;;;;7.70;2.10;;;30.10;99.90;;;;;;4838595;29;20609;-57
2022/08/24 09:13:29;;;;;;;5.57;2.10;;;30.40;99.90;;;;;;4869621;29;20241;-58
2022/08/24 09:16:27;;;;;;;3.83;2.20;;;30.30;99.90;;;;;;4839423;29;20231;-57
2022/08/24 09:19:26;;;;;;;4.87;2.00;;;30.10;99.90;;;;;;4856597;29;20251;-58
2022/08/24 09:22:11;;;;;;;3.37;2.30;;;30.40;99.90;;;;;;4838259;29;20266;-58
2022/08/24 09:25:06;;;;;;;5.27;2.33;;;30.20;99.90;;;;;;4840523;29;20266;-57
2022/08/24 09:28:01;;;;;;;5.27;2.17;;;30.30;99.90;;;;;;4870405;29;20234;-58
2022/08/24 09:30:41;;;;;;;3.67;2.20;;;30.30;99.90;;;;;;4858152;29;20636;-56
2022/08/24 09:33:21;;;;;;;4.73;2.20;;;30.50;99.90;;;;;;4853448;29;20228;-58
2022/08/24 09:36:12;;;;;;;5.83;2.17;;;30.70;99.90;;;;;;4856278;29;20239;-58
2022/08/24 09:39:07;;;;;;;4.80;2.17;;;30.50;99.90;;;;;;4852077;29;20247;-56
2022/08/24 09:42:14;;;;;;;3.73;2.10;;;30.50;99.90;;;;;;4855428;29;20595;-57
2022/08/24 09:45:10;;;;;;;7.07;2.10;;;30.50;99.90;;;;;;4836215;29;21068;-57
2022/08/24 09:48:29;;;;;;;2.83;2.00;;;30.20;99.90;;;;;;4839009;29;20290;-57
2022/08/24 09:51:28;;;;;;;4.87;2.20;;;30.60;99.90;;;;;;4840265;29;20266;-57
2022/08/24 09:54:34;;;;;;;4.00;2.17;;;30.90;99.80;;;;;;4841843;29;20270;-58
2022/08/24 09:57:26;;;;;;;3.80;2.37;;;31.20;99.60;;;;;;4851593;29;20755;-57
2022/08/24 10:00:19;;;;;;;4.70;2.00;;;31.50;99.80;;;;;;4853130;29;20234;-57
2022/08/24 10:03:08;;;;;;;4.37;2.07;;;32.00;98.50;;;;;;4854070;29;20798;-57
2022/08/24 10:06:11;;;;;;;4.23;2.20;;;31.90;98.10;;;;;;4862964;29;20242;-58
2022/08/24 10:09:12;;;;;;;5.13;2.13;;;31.60;98.40;;;;;;4855805;29;20938;-58
2022/08/24 10:11:49;;;;;;;4.57;2.40;;;31.70;98.20;;;;;;4851301;29;20707;-56
2022/08/24 10:14:28;;;;;;;3.47;2.13;;;31.40;98.20;;;;;;4853569;29;20702;-58
2022/08/24 10:17:04;;;;;;;5.07;2.33;;;31.90;98.50;;;;;;4852465;29;20792;-58
2022/08/24 10:19:56;;;;;;;5.30;2.30;;;32.30;97.70;;;;;;4866660;29;20731;-57
2022/08/24 10:22:38;;;;;;;4.43;2.17;;;32.20;97.30;;;;;;4871671;29;20241;-58
2022/08/24 10:25:17;;;;;;;3.67;2.00;;;32.30;97.60;;;;;;4873181;29;20650;-58
2022/08/24 10:27:56;;;;;;;3.00;2.40;;;32.50;97.10;;;;;;4873087;29;20315;-58
2022/08/24 10:30:47;;;;;;;5.20;2.13;;;32.50;96.70;;;;;;4870633;29;20241;-58
2022/08/24 10:33:21;;;;;;;4.20;2.23;;;32.90;96.80;;;;;;4873526;29;20747;-57
2022/08/24 10:36:18;;;;;;;2.67;1.80;;;33.20;96.50;;;;;;4870328;29;20233;-58
2022/08/24 10:42:04;;;;;;;4.27;2.60;;;33.40;95.20;;;;;;4866311;29;20269;-58
2022/08/24 10:44:47;;;;;;;3.43;1.97;;;33.00;94.70;;;;;;4868863;29;20247;-57
2022/08/24 10:47:22;;;;;;;6.43;2.60;;;32.30;93.90;;;;;;4872397;29;21213;-58
2022/08/24 10:50:19;;;;;;;5.97;2.30;;;32.30;95.00;;;;;;4869371;29;20783;-57
2022/08/24 10:53:27;;;;;;;5.17;2.23;;;32.50;95.10;;;;;;4867790;29;20334;-56
2022/08/24 10:56:05;;;;;;;3.87;2.17;;;32.70;95.10;;;;;;4869862;29;20236;-58
2022/08/24 10:58:56;;;;;;;2.07;1.87;;;33.00;94.10;;;;;;4867179;29;20742;-57
2022/08/24 11:01:28;;;;;;;3.13;2.20;;;33.00;94.40;;;;;;4866399;29;20332;-58
2022/08/24 11:04:02;;;;;;;4.33;2.10;;;33.10;94.20;;;;;;4866485;29;20341;-57
2022/08/24 11:06:33;;;;;;;4.30;2.10;;;33.10;93.50;;;;;;4870376;29;20245;-58
2022/08/24 11:09:07;;;;;;;3.20;2.10;;;33.20;94.30;;;;;;4870494;29;20321;-58
2022/08/24 11:11:38;;;;;;;3.10;2.00;;;33.60;93.90;;;;;;4869756;29;20806;-58
2022/08/24 11:14:21;;;;;;;2.97;2.07;;;34.00;93.80;;;;;;4866781;29;21189;-58
2022/08/24 11:16:50;;;;;;;4.00;2.00;;;33.70;92.50;;;;;;4870062;29;20240;-58
2022/08/24 11:19:32;;;;;;;2.67;2.10;;;33.60;92.10;;;;;;4861042;29;20830;-57
2022/08/24 11:22:03;;;;;;;3.67;2.00;;;33.50;93.20;;;;;;4861046;29;20336;-58
2022/08/24 11:24:42;;;;;;;2.43;1.90;;;33.60;92.50;;;;;;4866558;29;20266;-58
2022/08/24 11:27:25;;;;;;;7.93;1.97;;;33.60;92.10;;;;;;4861104;29;20328;-57
2022/08/24 11:30:00;;;;;;;4.70;1.97;;;33.70;91.70;;;;;;4861254;29;20265;-57
2022/08/24 11:32:32;;;;;;;3.70;2.33;;;33.60;91.60;;;;;;4861662;29;20233;-58
2022/08/24 11:35:07;;;;;;;3.00;2.20;;;33.50;91.60;;;;;;4861913;29;20280;-57
2022/08/24 11:37:37;;;;;;;2.93;2.30;;;33.50;91.30;;;;;;4861677;29;20333;-57
2022/08/24 11:40:09;;;;;;;4.30;2.17;;;33.70;91.90;;;;;;4861320;29;20230;-58
2022/08/24 11:42:56;;;;;;;2.70;2.00;;;33.90;90.90;;;;;;4852416;29;20234;-58
2022/08/24 11:45:34;;;;;;;5.53;2.20;;;33.50;90.80;;;;;;4850904;29;20611;-57
2022/08/24 11:48:14;;;;;;;4.10;2.33;;;33.60;90.40;;;;;;4850026;29;20249;-57
2022/08/24 11:50:52;;;;;;;4.97;2.37;;;33.50;91.00;;;;;;4849796;29;20336;-58
2022/08/24 11:53:32;;;;;;;4.07;2.03;;;33.50;91.00;;;;;;4850891;29;20722;-58
2022/08/24 11:56:11;;;;;;;2.60;1.90;;;33.80;91.40;;;;;;4843036;29;20239;-56
2022/08/24 11:58:52;;;;;;;3.03;2.00;;;34.00;91.20;;;;;;4851407;29;20253;-58
2022/08/24 12:01:27;;;;;;;4.63;2.07;;;33.80;90.40;;;;;;4852761;29;20254;-59
2022/08/24 12:04:18;;;;;;;3.77;2.10;;;33.40;90.10;;;;;;4867136;29;20329;-58
2022/08/24 12:06:55;;;;;;;3.23;2.00;;;32.70;91.80;;;;;;4866961;29;20238;-58
2022/08/24 12:09:39;;;;;;;2.80;1.90;;;32.70;91.40;;;;;;4874241;29;20257;-59
2022/08/24 12:12:17;;;;;;;5.30;2.10;;;32.50;91.60;;;;;;4870705;29;20308;-59
2022/08/24 12:14:53;;;;;;;4.03;2.13;;;32.30;92.00;;;;;;4875613;29;20459;-58
2022/08/24 12:17:28;;;;;;;6.73;2.20;;;32.30;91.90;;;;;;4873655;29;20785;-58
2022/08/24 12:20:00;;;;;;;5.60;2.27;;;32.30;91.90;;;;;;4869146;29;20230;-59
2022/08/24 12:22:28;;;;;;;4.33;1.90;;;32.30;91.50;;;;;;4869764;29;20317;-58
2022/08/24 12:25:00;;;;;;;4.17;2.23;;;32.10;91.40;;;;;;4871255;29;20267;-59
2022/08/24 12:27:33;;;;;;;4.67;2.20;;;31.80;91.30;;;;;;4869630;29;20329;-59
2022/08/24 12:30:05;;;;;;;4.03;2.10;;;31.90;91.80;;;;;;4864922;29;20311;-58
2022/08/24 12:32:39;;;;;;;5.17;2.10;;;32.00;91.60;;;;;;4867583;29;20249;-58
2022/08/24 12:35:15;;;;;;;3.80;2.20;;;31.70;92.00;;;;;;4872577;29;20257;-59
2022/08/24 12:37:48;;;;;;;4.37;2.13;;;31.70;91.90;;;;;;4868886;29;20225;-58
2022/08/24 12:40:23;;;;;;;5.10;2.07;;;31.70;92.10;;;;;;4869060;29;20251;-59
2022/08/24 12:42:58;;;;;;;4.97;2.30;;;31.70;92.00;;;;;;4870719;29;20240;-59
2022/08/24 12:45:26;;;;;;;5.30;2.23;;;31.80;92.30;;;;;;4860953;29;20742;-59
2022/08/24 12:47:58;;;;;;;5.97;2.07;;;31.80;91.50;;;;;;4860506;29;20252;-58
2022/08/24 12:50:31;;;;;;;4.13;2.00;;;31.70;91.60;;;;;;4861038;29;20226;-57
2022/08/24 12:53:30;;;;;;;3.90;2.30;;;31.50;91.50;;;;;;4860782;29;20721;-58
2022/08/24 12:56:16;;;;;;;4.67;2.10;;;31.50;91.50;;;;;;4860984;29;20239;-56
2022/08/24 12:58:57;;;;;;;3.63;2.00;;;31.50;91.70;;;;;;4860384;29;20242;-58
2022/08/24 13:01:32;;;;;;;3.53;2.03;;;31.50;92.00;;;;;;4860959;29;20264;-57
2022/08/24 13:04:09;;;;;;;4.03;2.00;;;31.50;91.50;;;;;;4859934;29;20242;-57
2022/08/24 13:06:41;;;;;;;3.00;2.13;;;31.40;92.60;;;;;;4860081;29;20282;-58
2022/08/24 13:09:16;;;;;;;3.70;1.87;;;31.50;92.70;;;;;;4860786;29;20225;-58
2022/08/24 13:11:45;;;;;;;3.90;2.13;;;31.50;92.60;;;;;;4846454;29;20244;-58
2022/08/24 13:14:20;;;;;;;4.33;2.30;;;31.40;93.00;;;;;;4860831;29;20277;-58
2022/08/24 13:17:11;;;;;;;4.07;2.43;;;31.30;93.50;;;;;;4860098;29;20337;-56
2022/08/24 13:19:44;;;;;;;4.73;2.10;;;31.30;93.90;;;;;;4847496;29;20736;-58
2022/08/24 13:22:39;;;;;;;6.07;2.40;;;31.30;94.20;;;;;;4850121;29;20245;-58
2022/08/24 13:25:25;;;;;;;3.53;2.30;;;31.00;94.40;;;;;;4853795;29;20250;-58
2022/08/24 13:28:27;;;;;;;2.77;2.20;;;31.00;94.70;;;;;;4851827;29;20910;-59
2022/08/24 13:31:21;;;;;;;3.47;2.27;;;31.00;94.50;;;;;;4851943;29;20242;-59
2022/08/24 13:33:53;;;;;;;3.30;2.10;;;30.60;95.10;;;;;;4852951;29;20407;-58
2022/08/24 13:36:48;;;;;;;3.10;2.10;;;30.70;95.00;;;;;;4852574;29;20242;-58
2022/08/24 13:39:55;;;;;;;4.50;2.10;;;30.80;94.50;;;;;;4851266;29;20253;-59
2022/08/24 13:42:45;;;;;;;3.97;2.10;;;30.60;94.90;;;;;;4840901;29;21102;-57